Time;durP1;ratioP1;P1;durP2;ratioP2;P2;SDS_P1;SDS_P2;PMS_P1;PMS_P2;Temp;Humidity;BMP_temperature;BMP_pressure;BME280_temperature;BME280_humidity;BME280_pressure;Samples;Min_cycle;Max_cycle;Signal;HPM_P1;HPM_P2
2022/08/28 00:01:33;;;;;;;5.55;4.20;;;26.30;68.60;;;;;;5093359;28;20091;-88
2022/08/28 00:03:59;;;;;;;5.70;4.18;;;26.30;68.70;;;;;;5093198;28;20501;-89
2022/08/28 00:06:26;;;;;;;6.10;4.40;;;26.20;69.50;;;;;;5109153;28;20028;-88
2022/08/28 00:08:52;;;;;;;6.53;4.15;;;26.20;69.80;;;;;;5093577;28;20020;-88
2022/08/28 00:11:19;;;;;;;5.65;4.68;;;26.10;69.70;;;;;;5093494;28;20029;-88
2022/08/28 00:13:46;;;;;;;6.95;4.63;;;26.10;69.80;;;;;;5075214;28;20028;-88
2022/08/28 00:16:12;;;;;;;7.10;4.30;;;26.20;70.20;;;;;;5093461;28;20031;-89
2022/08/28 00:18:38;;;;;;;5.57;3.55;;;26.20;70.20;;;;;;5093529;28;20036;-88
2022/08/28 00:21:04;;;;;;;8.23;5.10;;;26.20;69.60;;;;;;5092681;28;20030;-88
2022/08/28 00:23:31;;;;;;;6.97;5.13;;;26.10;70.40;;;;;;5093077;28;20036;-88
2022/08/28 00:25:58;;;;;;;8.48;4.75;;;26.10;70.50;;;;;;5092717;28;20283;-88
2022/08/28 00:28:24;;;;;;;9.18;4.78;;;26.00;70.50;;;;;;5074686;28;20055;-88
2022/08/28 00:30:52;;;;;;;6.70;4.38;;;26.00;70.80;;;;;;5093014;28;20054;-88
2022/08/28 00:33:21;;;;;;;5.13;4.57;;;26.00;71.00;;;;;;5093270;28;20048;-88
2022/08/28 00:35:47;;;;;;;6.53;5.00;;;26.00;71.10;;;;;;5075387;28;20032;-88
2022/08/28 00:38:14;;;;;;;5.47;4.50;;;26.00;71.00;;;;;;5093380;28;20468;-88
2022/08/28 00:40:43;;;;;;;6.88;4.40;;;26.10;70.90;;;;;;5092930;28;20068;-87
2022/08/28 00:43:10;;;;;;;6.90;4.78;;;26.10;70.80;;;;;;5092684;28;20027;-88
2022/08/28 00:45:36;;;;;;;6.28;5.18;;;26.10;70.70;;;;;;5093120;28;20028;-88
2022/08/28 00:48:03;;;;;;;6.70;5.25;;;26.10;70.60;;;;;;5094741;28;20016;-88
2022/08/28 00:52:04;;;;;;;7.50;4.85;;;26.10;70.50;;;;;;5097229;28;20103;-88
2022/08/28 00:53:19;;;;;;;7.40;4.72;;;26.20;70.40;;;;;;5096961;28;20051;-88
2022/08/28 00:55:44;;;;;;;7.13;5.25;;;26.20;70.40;;;;;;5096996;28;20028;-88
2022/08/28 00:58:11;;;;;;;7.28;4.60;;;26.20;70.30;;;;;;5097100;28;20024;-88
2022/08/28 01:00:38;;;;;;;6.55;4.57;;;26.20;70.20;;;;;;5097234;28;20055;-88
2022/08/28 01:03:05;;;;;;;7.03;4.55;;;26.20;70.20;;;;;;5097058;28;20055;-88
2022/08/28 01:05:33;;;;;;;5.43;4.22;;;26.20;70.20;;;;;;5097099;28;20042;-88
2022/08/28 01:08:00;;;;;;;6.70;4.80;;;26.20;70.20;;;;;;5096957;28;20055;-88
2022/08/28 01:10:28;;;;;;;9.93;4.70;;;26.20;70.10;;;;;;5096608;28;20028;-88
2022/08/28 01:12:56;;;;;;;6.57;4.45;;;26.20;70.10;;;;;;5078759;28;20024;-88
2022/08/28 01:15:24;;;;;;;6.32;4.65;;;26.20;70.10;;;;;;5096924;28;20119;-88
2022/08/28 01:17:55;;;;;;;5.78;4.63;;;26.20;70.10;;;;;;5096744;28;20035;-88
2022/08/28 01:20:27;;;;;;;9.35;4.60;;;26.20;70.10;;;;;;5096418;28;20032;-88
2022/08/28 01:23:20;;;;;;;5.70;4.13;;;26.20;70.10;;;;;;5076360;28;20036;-88
2022/08/28 01:25:46;;;;;;;7.93;4.03;;;26.20;70.30;;;;;;5076418;28;20028;-88
2022/08/28 01:28:13;;;;;;;5.28;4.05;;;26.10;70.20;;;;;;5076499;28;20032;-88
2022/08/28 01:30:44;;;;;;;6.70;4.38;;;26.10;70.30;;;;;;5081359;28;20035;-87
2022/08/28 01:33:10;;;;;;;5.82;4.40;;;26.20;70.40;;;;;;5083528;28;20044;-88
2022/08/28 01:35:43;;;;;;;4.70;4.20;;;26.20;70.30;;;;;;5096380;28;20330;-88
2022/08/28 01:38:08;;;;;;;6.07;4.22;;;26.20;70.20;;;;;;5096450;28;20150;-88
2022/08/28 01:40:38;;;;;;;5.13;4.55;;;26.10;70.10;;;;;;5077666;28;20078;-87
2022/08/28 01:43:11;;;;;;;6.53;4.88;;;26.10;70.20;;;;;;5095556;28;20032;-87
2022/08/28 01:45:37;;;;;;;7.47;4.40;;;26.10;70.40;;;;;;5095531;28;20020;-87
2022/08/28 01:48:05;;;;;;;7.88;4.47;;;26.00;70.30;;;;;;5077750;28;20121;-87
2022/08/28 01:50:32;;;;;;;7.20;4.50;;;26.00;70.30;;;;;;5095985;28;20237;-87
2022/08/28 01:52:58;;;;;;;7.07;4.57;;;26.00;70.50;;;;;;5077345;28;20047;-87
2022/08/28 01:55:24;;;;;;;5.65;4.35;;;26.00;70.50;;;;;;5078046;28;20043;-88
2022/08/28 01:57:52;;;;;;;6.95;4.30;;;26.00;70.50;;;;;;5095644;28;20024;-87
2022/08/28 02:00:20;;;;;;;5.07;4.57;;;26.10;70.50;;;;;;5095284;28;20024;-87
2022/08/28 02:02:50;;;;;;;5.97;4.50;;;26.10;70.50;;;;;;5095686;28;20028;-87
2022/08/28 02:05:16;;;;;;;8.60;4.22;;;26.10;70.60;;;;;;5095316;28;20023;-87
2022/08/28 02:07:41;;;;;;;5.65;4.13;;;26.10;70.50;;;;;;5094499;28;20082;-87
2022/08/28 02:10:10;;;;;;;6.50;4.38;;;26.10;70.40;;;;;;5095108;28;20028;-87
2022/08/28 02:12:36;;;;;;;9.80;4.78;;;26.20;70.50;;;;;;5094736;28;20024;-86
2022/08/28 02:15:05;;;;;;;5.22;4.32;;;26.10;70.30;;;;;;5094539;28;20345;-86
2022/08/28 02:17:31;;;;;;;6.13;4.20;;;26.10;70.30;;;;;;5076495;28;20024;-86
2022/08/28 02:19:58;;;;;;;5.22;4.53;;;26.10;70.40;;;;;;5094823;28;20024;-86
2022/08/28 02:22:23;;;;;;;4.93;3.85;;;26.10;70.40;;;;;;5094532;28;20111;-86
2022/08/28 02:24:49;;;;;;;6.82;4.57;;;26.10;70.40;;;;;;5094439;28;20115;-86
2022/08/28 02:27:15;;;;;;;5.85;4.78;;;26.10;70.40;;;;;;5095252;28;20416;-86
2022/08/28 02:29:41;;;;;;;6.15;4.60;;;26.00;70.60;;;;;;5095400;28;20048;-86
2022/08/28 02:32:06;;;;;;;8.93;4.45;;;26.00;70.70;;;;;;5095166;28;20495;-86
2022/08/28 02:34:33;;;;;;;6.20;4.35;;;26.00;70.80;;;;;;5095172;28;20510;-86
2022/08/28 02:36:59;;;;;;;6.35;4.15;;;26.00;71.00;;;;;;5094762;28;20032;-86
2022/08/28 02:39:25;;;;;;;9.85;5.28;;;26.00;71.00;;;;;;5093593;28;20050;-86
2022/08/28 02:41:51;;;;;;;7.65;4.78;;;26.00;71.20;;;;;;5075872;28;20372;-86
2022/08/28 02:44:16;;;;;;;7.35;5.07;;;26.00;71.50;;;;;;5093332;28;20028;-86
2022/08/28 02:46:42;;;;;;;6.78;5.20;;;25.90;71.50;;;;;;5074428;28;20387;-85
2022/08/28 02:49:08;;;;;;;5.80;4.65;;;25.90;72.00;;;;;;5093966;28;20024;-86
2022/08/28 02:51:34;;;;;;;10.68;5.80;;;25.80;72.10;;;;;;5076509;28;20384;-86
2022/08/28 02:54:00;;;;;;;7.15;5.90;;;25.70;72.40;;;;;;5094749;28;20048;-86
2022/08/28 02:56:26;;;;;;;12.30;5.65;;;25.50;72.80;;;;;;5094348;28;20082;-86
2022/08/28 02:58:52;;;;;;;7.22;5.53;;;25.40;73.00;;;;;;5094588;28;20028;-86
2022/08/28 03:01:18;;;;;;;7.00;4.47;;;25.40;73.10;;;;;;5094400;28;20161;-86
2022/08/28 03:03:44;;;;;;;8.15;4.90;;;25.40;72.70;;;;;;5094141;28;20046;-86
2022/08/28 03:06:11;;;;;;;6.03;4.78;;;25.50;72.80;;;;;;5094570;28;20024;-86
2022/08/28 03:08:37;;;;;;;8.38;5.47;;;25.50;72.80;;;;;;5094239;28;20016;-86
2022/08/28 03:11:03;;;;;;;7.45;4.97;;;25.60;72.80;;;;;;5093604;28;20412;-86
2022/08/28 03:13:29;;;;;;;5.78;4.55;;;25.60;72.70;;;;;;5093837;28;20442;-86
2022/08/28 03:15:56;;;;;;;7.70;4.63;;;25.70;72.70;;;;;;5094383;28;20111;-86
2022/08/28 03:18:25;;;;;;;7.70;5.05;;;25.70;72.60;;;;;;5094122;28;20043;-86
2022/08/28 03:20:50;;;;;;;7.13;5.38;;;25.70;72.80;;;;;;5094183;28;20020;-86
2022/08/28 03:23:25;;;;;;;7.28;5.07;;;25.70;72.60;;;;;;5093650;28;20107;-86
2022/08/28 03:25:56;;;;;;;8.20;4.82;;;25.70;72.80;;;;;;5093431;28;20039;-86
2022/08/28 03:28:24;;;;;;;7.68;5.55;;;25.60;72.60;;;;;;5093972;28;20036;-86
2022/08/28 03:30:50;;;;;;;5.28;4.55;;;25.60;72.70;;;;;;5093508;28;20065;-87
2022/08/28 03:33:16;;;;;;;5.82;4.93;;;25.50;72.90;;;;;;5093431;28;20123;-87
2022/08/28 03:35:42;;;;;;;6.35;4.90;;;25.50;72.80;;;;;;5093829;28;20558;-87
2022/08/28 03:38:10;;;;;;;8.27;5.32;;;25.50;73.00;;;;;;5093359;28;20032;-86
2022/08/28 03:40:46;;;;;;;6.95;5.13;;;25.60;73.00;;;;;;5093576;28;20028;-86
2022/08/28 03:43:15;;;;;;;7.93;5.53;;;25.60;72.90;;;;;;5093427;28;20429;-86
2022/08/28 03:45:49;;;;;;;6.95;5.25;;;25.70;72.90;;;;;;5074859;28;20026;-86
2022/08/28 03:48:15;;;;;;;6.40;5.05;;;25.70;72.80;;;;;;5093864;28;20399;-86
2022/08/28 03:50:41;;;;;;;6.50;5.45;;;25.60;72.80;;;;;;5093716;28;20032;-86
2022/08/28 03:53:06;;;;;;;6.57;5.18;;;25.70;72.70;;;;;;5075726;28;20032;-86
2022/08/28 03:55:32;;;;;;;10.23;5.57;;;25.70;72.70;;;;;;5093362;28;20032;-86
2022/08/28 03:57:59;;;;;;;8.10;5.88;;;25.70;72.60;;;;;;5075324;28;20052;-85
2022/08/28 04:00:25;;;;;;;6.35;5.07;;;25.70;72.60;;;;;;5093287;28;20039;-86
2022/08/28 04:02:51;;;;;;;7.30;5.57;;;25.70;72.50;;;;;;5093076;28;20377;-86
2022/08/28 04:05:17;;;;;;;5.85;5.07;;;25.70;72.40;;;;;;5075124;28;20055;-86
2022/08/28 04:07:42;;;;;;;5.57;4.88;;;25.70;72.50;;;;;;5093404;28;20464;-86
2022/08/28 04:10:08;;;;;;;8.15;5.65;;;25.70;72.40;;;;;;5092817;28;20036;-84
2022/08/28 04:12:35;;;;;;;6.68;4.90;;;25.70;72.40;;;;;;5092451;28;20028;-84
2022/08/28 04:15:03;;;;;;;9.85;5.72;;;25.70;72.40;;;;;;5092882;28;20036;-84
2022/08/28 04:17:29;;;;;;;9.90;5.53;;;25.60;72.50;;;;;;5092990;28;20391;-86
2022/08/28 04:19:55;;;;;;;7.70;6.20;;;25.60;72.80;;;;;;5093095;28;20016;-86
2022/08/28 04:22:21;;;;;;;8.93;6.32;;;25.60;72.90;;;;;;5093331;28;20445;-86
2022/08/28 04:24:47;;;;;;;9.95;6.78;;;25.50;73.00;;;;;;5092843;28;20070;-86
2022/08/28 04:27:13;;;;;;;9.88;5.53;;;25.50;73.10;;;;;;5093115;28;20059;-86
2022/08/28 04:29:39;;;;;;;8.15;6.60;;;25.50;73.30;;;;;;5092923;28;20052;-87
2022/08/28 04:32:05;;;;;;;7.78;6.07;;;25.50;73.40;;;;;;5092812;28;20047;-85
2022/08/28 04:34:31;;;;;;;8.38;4.97;;;25.50;73.50;;;;;;5093238;28;20160;-85
2022/08/28 04:36:57;;;;;;;6.03;5.43;;;25.50;73.50;;;;;;5074857;28;20127;-86
2022/08/28 04:39:23;;;;;;;8.30;4.93;;;25.60;73.50;;;;;;5092971;28;20485;-87
2022/08/28 04:41:49;;;;;;;5.55;4.85;;;25.50;73.40;;;;;;5093172;28;20476;-87
2022/08/28 04:44:15;;;;;;;7.10;5.35;;;25.50;73.50;;;;;;5092723;28;20133;-86
2022/08/28 04:46:41;;;;;;;6.25;4.75;;;25.50;73.40;;;;;;5092515;28;20024;-87
2022/08/28 04:49:07;;;;;;;6.47;4.40;;;25.50;73.40;;;;;;5074720;28;20126;-86
2022/08/28 04:51:33;;;;;;;6.60;4.50;;;25.50;73.40;;;;;;5092705;28;20464;-86
2022/08/28 04:54:00;;;;;;;9.82;5.15;;;25.50;73.40;;;;;;5074463;28;20066;-84
2022/08/28 04:56:26;;;;;;;8.30;4.65;;;25.60;73.50;;;;;;5092257;28;20086;-88
2022/08/28 04:58:52;;;;;;;6.82;4.82;;;25.60;73.40;;;;;;5074951;28;20024;-88
2022/08/28 05:01:23;;;;;;;6.68;4.32;;;25.50;73.30;;;;;;5092870;28;20032;-86
2022/08/28 05:03:53;;;;;;;5.97;4.32;;;25.50;73.30;;;;;;5092391;28;20091;-86
2022/08/28 05:06:20;;;;;;;5.90;4.28;;;25.60;73.50;;;;;;5094034;28;20069;-86
2022/08/28 05:08:46;;;;;;;6.13;4.72;;;25.50;73.40;;;;;;5094987;28;20023;-87
2022/08/28 05:11:20;;;;;;;5.75;4.07;;;25.50;73.40;;;;;;5113495;28;20464;-87
2022/08/28 05:13:47;;;;;;;5.45;4.05;;;25.50;73.30;;;;;;5113461;28;20436;-87
2022/08/28 05:16:13;;;;;;;4.25;3.63;;;25.50;73.10;;;;;;5095143;28;20027;-88
2022/08/28 05:18:39;;;;;;;6.07;4.70;;;25.50;72.90;;;;;;5113426;28;20476;-85
2022/08/28 05:21:14;;;;;;;5.03;3.85;;;25.50;72.80;;;;;;5113271;28;20027;-87
2022/08/28 05:23:40;;;;;;;5.47;4.28;;;25.60;72.70;;;;;;5093351;28;20028;-86
2022/08/28 05:26:12;;;;;;;6.80;4.22;;;25.60;72.60;;;;;;5093127;28;20021;-85
2022/08/28 05:28:39;;;;;;;6.32;4.05;;;25.60;72.50;;;;;;5093022;28;20426;-85
2022/08/28 05:31:18;;;;;;;6.45;3.72;;;25.60;72.50;;;;;;5092818;28;20020;-85
2022/08/28 05:33:46;;;;;;;5.90;4.45;;;25.50;72.40;;;;;;5093888;28;20097;-85
2022/08/28 05:36:12;;;;;;;5.28;4.03;;;25.50;72.70;;;;;;5096349;28;20032;-85
2022/08/28 05:38:39;;;;;;;6.30;4.45;;;25.50;72.70;;;;;;5096514;28;20024;-89
2022/08/28 05:41:05;;;;;;;4.18;3.78;;;25.50;72.60;;;;;;5096321;28;20048;-85
2022/08/28 05:43:31;;;;;;;6.22;4.40;;;25.50;72.50;;;;;;5096212;28;20369;-85
2022/08/28 05:45:59;;;;;;;8.63;4.47;;;25.50;72.60;;;;;;5096365;28;20023;-85
2022/08/28 05:48:34;;;;;;;6.85;3.80;;;25.40;72.70;;;;;;5096207;28;20020;-85
2022/08/28 05:51:09;;;;;;;4.97;3.92;;;25.40;72.80;;;;;;5096046;28;20038;-85
2022/08/28 05:53:39;;;;;;;5.35;3.78;;;25.40;72.80;;;;;;5096443;28;20020;-87
2022/08/28 05:56:16;;;;;;;5.65;4.05;;;25.40;72.80;;;;;;5096167;28;20082;-84
2022/08/28 05:58:42;;;;;;;5.15;4.30;;;25.50;72.90;;;;;;5096010;28;20484;-84
2022/08/28 06:01:15;;;;;;;5.28;3.80;;;25.40;72.90;;;;;;5095823;28;20043;-84
2022/08/28 06:03:43;;;;;;;8.02;4.13;;;25.50;72.80;;;;;;5095257;28;20030;-84
2022/08/28 06:06:10;;;;;;;5.70;4.38;;;25.50;72.70;;;;;;5095229;28;20059;-84
2022/08/28 06:08:37;;;;;;;3.95;3.55;;;25.50;72.70;;;;;;5095279;28;20016;-84
2022/08/28 06:11:04;;;;;;;6.32;3.80;;;25.50;72.80;;;;;;5095256;28;20029;-84
2022/08/28 06:13:31;;;;;;;6.85;3.80;;;25.60;72.70;;;;;;5095371;28;20028;-84
2022/08/28 06:15:57;;;;;;;5.88;4.35;;;25.60;72.60;;;;;;5095315;28;20036;-84
2022/08/28 06:18:23;;;;;;;5.13;3.85;;;25.60;73.00;;;;;;5095400;28;20070;-86
2022/08/28 06:20:49;;;;;;;4.38;3.22;;;25.60;72.90;;;;;;5094857;28;20040;-86
2022/08/28 06:23:18;;;;;;;5.18;3.85;;;25.60;72.80;;;;;;5076867;28;20039;-86
2022/08/28 06:25:47;;;;;;;5.40;3.42;;;25.60;72.70;;;;;;5095079;28;20028;-86
2022/08/28 06:28:19;;;;;;;9.65;5.05;;;25.70;72.80;;;;;;5077158;28;20020;-86
2022/08/28 06:30:45;;;;;;;7.00;4.72;;;25.70;73.30;;;;;;5094945;28;20036;-87
2022/08/28 06:33:12;;;;;;;6.47;4.13;;;25.60;73.40;;;;;;5076379;28;20057;-86
2022/08/28 06:35:46;;;;;;;7.03;3.58;;;25.60;73.30;;;;;;5094990;28;20111;-86
2022/08/28 06:38:13;;;;;;;6.78;3.97;;;25.60;73.30;;;;;;5104572;28;20035;-86
2022/08/28 06:40:46;;;;;;;6.82;4.15;;;25.00;73.00;;;;;;5076393;28;20384;-87
2022/08/28 06:43:12;;;;;;;6.07;4.25;;;25.60;73.70;;;;;;5094529;28;20031;-87
2022/08/28 06:45:40;;;;;;;5.30;4.28;;;25.70;73.60;;;;;;5093824;28;20543;-83
2022/08/28 06:48:10;;;;;;;5.32;3.72;;;25.70;73.60;;;;;;5094785;28;20032;-83
2022/08/28 06:50:41;;;;;;;7.88;4.03;;;25.80;73.80;;;;;;5094583;28;20519;-83
2022/08/28 06:53:08;;;;;;;5.65;3.60;;;25.70;73.70;;;;;;5094347;28;20024;-83
2022/08/28 06:55:34;;;;;;;5.78;4.25;;;25.80;73.70;;;;;;5094050;28;20097;-85
2022/08/28 06:58:00;;;;;;;5.28;4.28;;;25.80;73.70;;;;;;5094109;28;20020;-84
2022/08/28 07:00:26;;;;;;;4.95;4.03;;;25.90;73.60;;;;;;5094421;28;20494;-84
2022/08/28 07:02:52;;;;;;;5.32;3.35;;;25.90;73.60;;;;;;5093908;28;20055;-84
2022/08/28 07:05:18;;;;;;;5.85;3.92;;;26.00;73.60;;;;;;5094224;28;20024;-85
2022/08/28 07:07:46;;;;;;;7.05;4.70;;;26.00;74.20;;;;;;5074338;28;20036;-85
2022/08/28 07:10:12;;;;;;;5.57;4.28;;;26.00;73.70;;;;;;5094145;28;20031;-85
2022/08/28 07:12:39;;;;;;;4.07;3.63;;;26.00;73.40;;;;;;5076170;28;20033;-85
2022/08/28 07:15:05;;;;;;;4.65;3.90;;;26.00;73.50;;;;;;5094060;28;20051;-85
2022/08/28 07:17:31;;;;;;;5.88;4.32;;;26.00;73.50;;;;;;5094282;28;20028;-85
2022/08/28 07:19:57;;;;;;;7.05;4.47;;;26.10;73.50;;;;;;5093855;28;20031;-86
2022/08/28 07:22:23;;;;;;;6.05;4.32;;;26.10;74.10;;;;;;5093828;28;20472;-86
2022/08/28 07:24:49;;;;;;;7.15;5.13;;;26.10;73.60;;;;;;5093793;28;20380;-86
2022/08/28 07:27:14;;;;;;;4.80;4.22;;;26.00;74.00;;;;;;5094125;28;20032;-86
2022/08/28 07:29:40;;;;;;;6.43;4.50;;;26.00;73.90;;;;;;5094211;28;20027;-86
2022/08/28 07:32:06;;;;;;;4.70;3.95;;;26.00;73.80;;;;;;5093365;28;20043;-86
2022/08/28 07:34:36;;;;;;;7.57;4.35;;;26.00;73.90;;;;;;5075207;28;20213;-85
2022/08/28 07:37:03;;;;;;;;;;;26.10;74.10;;;;;;5055413;28;20039;-86
2022/08/28 07:39:29;;;;;;;7.50;4.15;;;26.10;74.20;;;;;;5059781;28;19935;-85
2022/08/28 07:41:55;;;;;;;7.45;4.85;;;26.10;74.10;;;;;;5073521;28;20111;-86
2022/08/28 07:47:06;;;;;;;9.55;6.00;;;26.10;74.10;;;;;;5077292;28;20385;-86
2022/08/28 07:49:33;;;;;;;8.05;5.82;;;26.10;74.20;;;;;;5064252;28;20175;-85
2022/08/28 07:51:59;;;;;;;13.80;6.05;;;26.00;74.00;;;;;;5093279;28;20027;-86
2022/08/28 07:54:25;;;;;;;7.90;5.50;;;25.90;74.40;;;;;;5085973;28;20029;-86
2022/08/28 07:56:51;;;;;;;9.80;5.18;;;25.80;74.80;;;;;;5056540;28;20028;-86
2022/08/28 07:59:17;;;;;;;6.13;5.05;;;25.70;74.90;;;;;;5093685;28;20469;-90
2022/08/28 08:01:45;;;;;;;5.50;4.82;;;25.60;75.10;;;;;;5093713;28;20032;-88
2022/08/28 08:04:12;;;;;;;6.63;4.65;;;25.70;75.20;;;;;;5093550;28;20034;-86
2022/08/28 08:21:27;;;;;;;7.63;4.78;;;25.90;74.40;;;;;;6221244;22;1560223;-73
2022/08/28 08:23:53;;;;;;;6.28;4.57;;;26.70;73.60;;;;;;6285657;22;20035;-73
2022/08/28 08:26:22;;;;;;;6.13;4.28;;;26.80;73.50;;;;;;6285232;22;20070;-74
2022/08/28 08:28:49;;;;;;;8.40;4.82;;;27.00;73.50;;;;;;6285029;22;20027;-74
2022/08/28 08:31:20;;;;;;;4.97;4.45;;;27.00;73.20;;;;;;6285558;22;19995;-73
2022/08/28 08:33:48;;;;;;;5.68;4.82;;;27.10;72.80;;;;;;6285298;22;20027;-73
2022/08/28 08:36:16;;;;;;;8.05;4.60;;;27.20;72.60;;;;;;6285545;22;20011;-73
2022/08/28 08:38:42;;;;;;;7.45;5.22;;;27.30;72.60;;;;;;6283956;22;20070;-74
2022/08/28 08:41:20;;;;;;;6.68;5.20;;;27.40;72.70;;;;;;6284773;22;20472;-74
2022/08/28 08:43:53;;;;;;;6.50;4.95;;;27.50;72.50;;;;;;6282861;22;20476;-75
2022/08/28 08:46:26;;;;;;;5.97;5.07;;;27.60;71.80;;;;;;6253274;22;20083;-74
2022/08/28 08:48:52;;;;;;;6.30;4.63;;;27.70;71.70;;;;;;6281561;22;20007;-77
2022/08/28 08:51:27;;;;;;;7.95;5.38;;;27.70;71.80;;;;;;6254785;22;20437;-77
2022/08/28 08:54:06;;;;;;;5.22;4.35;;;27.80;71.80;;;;;;6281898;22;20049;-77
2022/08/28 08:56:32;;;;;;;8.17;4.83;;;27.80;71.80;;;;;;6281327;22;20322;-77
2022/08/28 08:59:00;;;;;;;5.10;4.60;;;27.80;71.40;;;;;;6281154;22;20000;-77
2022/08/28 09:01:38;;;;;;;7.80;4.75;;;27.90;71.30;;;;;;6254035;22;20008;-77
2022/08/28 09:04:33;;;;;;;10.27;5.35;;;27.90;71.10;;;;;;6279610;22;20004;-77
2022/08/28 09:07:03;;;;;;;5.57;4.18;;;27.90;70.70;;;;;;6281202;22;20007;-77
2022/08/28 09:09:36;;;;;;;7.47;5.25;;;28.00;71.20;;;;;;6280349;22;20004;-77
2022/08/28 09:12:04;;;;;;;6.10;4.30;;;28.10;70.60;;;;;;6280703;22;20413;-77
2022/08/28 09:14:57;;;;;;;6.20;4.43;;;28.20;70.70;;;;;;6281004;22;19996;-78
2022/08/28 09:17:29;;;;;;;8.00;5.70;;;28.30;70.30;;;;;;6253807;22;19999;-78
2022/08/28 09:19:55;;;;;;;8.85;5.57;;;28.40;69.90;;;;;;6283671;22;20015;-78
2022/08/28 09:22:21;;;;;;;8.10;5.10;;;28.50;69.40;;;;;;6278061;22;20440;-82
2022/08/28 09:24:47;;;;;;;10.10;5.07;;;28.60;69.30;;;;;;6276659;22;20031;-82
2022/08/28 09:27:31;;;;;;;8.55;7.70;;;28.60;69.50;;;;;;6277487;22;20007;-83
2022/08/28 09:30:05;;;;;;;21.35;19.08;;;28.80;69.50;;;;;;6250560;22;20053;-84
2022/08/28 09:32:43;;;;;;;16.42;14.55;;;28.90;68.30;;;;;;6277521;22;20460;-84
2022/08/28 09:35:14;;;;;;;26.85;23.80;;;29.00;68.50;;;;;;6277839;22;20326;-83
2022/08/28 09:37:41;;;;;;;11.00;7.60;;;29.20;68.60;;;;;;6277704;22;19996;-83
2022/08/28 09:40:12;;;;;;;6.90;5.40;;;29.30;68.30;;;;;;6277865;22;20398;-83
2022/08/28 09:45:36;;;;;;;6.63;4.85;;;29.50;68.40;;;;;;6194895;22;20038;-76
2022/08/28 09:48:16;;;;;;;5.80;4.50;;;29.70;67.90;;;;;;6277963;22;20473;-77
2022/08/28 09:51:04;;;;;;;7.63;5.10;;;29.90;67.70;;;;;;6241353;22;20003;-77
2022/08/28 09:53:34;;;;;;;6.68;4.85;;;30.00;67.50;;;;;;6276182;22;20049;-77
2022/08/28 09:55:59;;;;;;;6.00;4.63;;;30.10;67.50;;;;;;6275984;22;19996;-83
2022/08/28 09:58:35;;;;;;;6.15;4.43;;;30.20;67.50;;;;;;6277578;22;20391;-83
2022/08/28 10:01:21;;;;;;;7.10;4.00;;;30.30;67.40;;;;;;6276663;22;20329;-76
2022/08/28 10:04:15;;;;;;;6.35;4.50;;;30.50;67.10;;;;;;6276764;22;20083;-77
2022/08/28 10:06:47;;;;;;;8.63;6.03;;;30.60;66.70;;;;;;6276289;22;20071;-77
2022/08/28 10:09:37;;;;;;;6.18;5.13;;;30.70;65.90;;;;;;6249773;22;20004;-77
2022/08/28 10:12:28;;;;;;;7.07;4.80;;;30.70;65.40;;;;;;6276877;22;19996;-77
2022/08/28 10:15:23;;;;;;;6.15;5.03;;;30.70;65.50;;;;;;6276837;22;20053;-77
2022/08/28 10:18:17;;;;;;;5.75;4.20;;;30.90;65.20;;;;;;6276680;22;20435;-77
2022/08/28 10:20:52;;;;;;;9.65;4.82;;;30.90;64.60;;;;;;6274946;22;20015;-78
2022/08/28 10:23:35;;;;;;;8.98;5.38;;;31.00;64.70;;;;;;6275803;22;20003;-83
2022/08/28 10:26:42;;;;;;;5.00;4.38;;;31.10;63.20;;;;;;6249097;22;20008;-84
2022/08/28 10:29:50;;;;;;;5.15;4.57;;;31.20;63.70;;;;;;6123118;23;20006;-83
2022/08/28 10:32:40;;;;;;;6.35;4.50;;;31.30;63.60;;;;;;6275531;22;19995;-84
2022/08/28 10:35:21;;;;;;;8.80;4.18;;;31.40;62.60;;;;;;6276781;22;20010;-83
2022/08/28 10:38:02;;;;;;;5.00;4.47;;;31.60;63.50;;;;;;6276389;22;20303;-83
2022/08/28 10:40:34;;;;;;;6.28;4.32;;;31.80;63.20;;;;;;6276567;22;20011;-83
2022/08/28 10:43:09;;;;;;;7.65;5.10;;;31.80;62.30;;;;;;6276516;22;20000;-83
2022/08/28 10:45:37;;;;;;;7.05;4.57;;;31.90;60.70;;;;;;6276455;22;20003;-84
2022/08/28 10:48:16;;;;;;;5.53;4.97;;;32.00;61.70;;;;;;6276732;22;20361;-83
2022/08/28 10:50:46;;;;;;;8.00;4.40;;;32.00;60.40;;;;;;6276756;22;20085;-83
2022/08/28 10:53:16;;;;;;;5.93;4.63;;;32.00;60.90;;;;;;6276783;22;20002;-83
2022/08/28 10:56:09;;;;;;;6.38;5.18;;;32.10;61.00;;;;;;6276656;22;19995;-83
2022/08/28 10:58:39;;;;;;;5.75;4.18;;;32.30;60.00;;;;;;6277333;22;20065;-83
2022/08/28 11:01:12;;;;;;;5.10;4.53;;;32.30;60.50;;;;;;6277158;22;19996;-83
2022/08/28 11:03:48;;;;;;;9.18;4.72;;;32.50;60.50;;;;;;6276991;22;19995;-83
2022/08/28 11:06:43;;;;;;;8.82;5.00;;;32.70;59.30;;;;;;6276721;22;20075;-84
2022/08/28 11:09:25;;;;;;;8.18;4.93;;;32.70;58.20;;;;;;6276878;22;20031;-83
2022/08/28 11:11:55;;;;;;;5.22;4.45;;;32.60;58.30;;;;;;6276674;22;20000;-83
2022/08/28 11:14:40;;;;;;;10.35;5.20;;;32.60;58.90;;;;;;6277301;22;20000;-83
2022/08/28 11:17:29;;;;;;;5.00;4.35;;;32.60;57.60;;;;;;6274532;22;20007;-83
2022/08/28 11:20:28;;;;;;;8.32;4.40;;;32.60;58.90;;;;;;6273460;22;20459;-83
2022/08/28 11:23:14;;;;;;;6.10;4.20;;;32.90;59.00;;;;;;6193292;22;20038;-84
2022/08/28 11:25:48;;;;;;;7.78;4.85;;;33.10;58.90;;;;;;6276492;22;20000;-83
2022/08/28 11:28:23;;;;;;;8.98;4.93;;;33.40;58.40;;;;;;6249459;22;20000;-84
2022/08/28 11:31:09;;;;;;;7.70;5.35;;;33.70;57.90;;;;;;6249791;22;20014;-84
2022/08/28 11:33:35;;;;;;;5.18;4.07;;;33.80;55.50;;;;;;6276344;22;20000;-83
2022/08/28 11:36:01;;;;;;;5.15;4.45;;;33.90;57.30;;;;;;6276467;22;20000;-84
2022/08/28 11:38:42;;;;;;;8.65;4.70;;;34.10;57.20;;;;;;6249375;22;20098;-84
2022/08/28 11:41:23;;;;;;;6.63;4.20;;;34.40;56.00;;;;;;6276986;22;20003;-84
2022/08/28 11:44:09;;;;;;;8.38;4.60;;;34.60;55.90;;;;;;6276868;22;20083;-84
2022/08/28 11:46:43;;;;;;;5.50;4.38;;;34.90;54.40;;;;;;6275957;22;20027;-84
2022/08/28 11:49:30;;;;;;;6.45;4.25;;;35.00;54.80;;;;;;6276645;22;20007;-84
2022/08/28 11:52:11;;;;;;;4.30;3.90;;;35.40;53.70;;;;;;6276955;22;20076;-84
2022/08/28 11:55:01;;;;;;;7.55;3.80;;;35.50;53.80;;;;;;6276822;22;20452;-84
2022/08/28 11:57:51;;;;;;;5.32;3.92;;;35.70;51.90;;;;;;6276464;22;20006;-84
2022/08/28 12:00:30;;;;;;;5.05;3.85;;;35.70;52.80;;;;;;6222839;22;20011;-84
2022/08/28 12:03:22;;;;;;;4.47;4.07;;;35.80;52.40;;;;;;6276140;22;20429;-84
2022/08/28 12:05:52;;;;;;;6.93;3.80;;;35.80;52.00;;;;;;6276641;22;20074;-85
2022/08/28 12:09:00;;;;;;;3.63;3.00;;;35.90;52.70;;;;;;6276430;22;20000;-85
2022/08/28 12:11:38;;;;;;;5.88;4.50;;;35.90;52.40;;;;;;6249809;22;20061;-85
2022/08/28 12:14:04;;;;;;;8.80;4.25;;;36.10;51.40;;;;;;6276357;22;19999;-85
2022/08/28 12:17:07;;;;;;;5.20;3.95;;;36.20;52.00;;;;;;6276533;22;20003;-84
2022/08/28 12:19:43;;;;;;;3.65;3.30;;;36.40;51.30;;;;;;6249495;22;20064;-85
2022/08/28 12:22:13;;;;;;;5.00;3.50;;;36.50;51.60;;;;;;6276924;22;20003;-78
2022/08/28 12:24:51;;;;;;;3.40;3.10;;;36.60;51.30;;;;;;6249436;22;20004;-77
2022/08/28 12:27:17;;;;;;;4.97;3.17;;;36.60;51.20;;;;;;6243171;22;20000;-78
2022/08/28 12:29:56;;;;;;;5.03;3.53;;;36.70;51.40;;;;;;6275355;22;20008;-77
2022/08/28 12:32:32;;;;;;;3.83;3.10;;;36.70;51.10;;;;;;6275473;22;20325;-78
2022/08/28 12:34:58;;;;;;;4.40;3.22;;;36.80;51.30;;;;;;6275047;22;20023;-78
2022/08/28 12:37:36;;;;;;;5.75;3.30;;;36.80;51.20;;;;;;6275759;22;20414;-77
2022/08/28 12:40:19;;;;;;;3.58;3.08;;;36.80;51.10;;;;;;6276556;22;20074;-78
2022/08/28 12:42:55;;;;;;;6.28;2.90;;;36.70;50.80;;;;;;6276220;22;19999;-77
2022/08/28 12:45:41;;;;;;;3.20;2.67;;;36.70;51.30;;;;;;6276228;22;20007;-77
2022/08/28 12:48:19;;;;;;;4.80;2.90;;;36.60;51.30;;;;;;6276430;22;20003;-78
2022/08/28 12:50:46;;;;;;;3.38;2.72;;;36.60;51.60;;;;;;6268314;22;20086;-77
2022/08/28 12:53:17;;;;;;;3.35;2.70;;;36.60;51.90;;;;;;6273427;22;20026;-78
2022/08/28 12:55:44;;;;;;;4.47;2.80;;;36.50;51.70;;;;;;6248493;22;20000;-78
2022/08/28 12:58:42;;;;;;;4.65;3.03;;;36.50;51.80;;;;;;6277350;22;20067;-77
2022/08/28 13:01:14;;;;;;;3.20;2.90;;;36.40;51.20;;;;;;6194475;22;20003;-77
2022/08/28 13:04:27;;;;;;;7.88;2.95;;;36.40;50.60;;;;;;6278246;22;20125;-85
2022/08/28 13:07:09;;;;;;;2.70;2.50;;;36.30;51.40;;;;;;6209731;22;20011;-84
2022/08/28 13:09:35;;;;;;;3.92;2.58;;;36.20;51.60;;;;;;6277904;22;20000;-83
2022/08/28 13:12:01;;;;;;;2.88;2.55;;;36.10;51.20;;;;;;6250472;22;20023;-84
2022/08/28 13:14:37;;;;;;;2.40;2.20;;;35.90;51.20;;;;;;6277792;22;20075;-84
2022/08/28 13:17:03;;;;;;;2.97;2.38;;;35.80;51.30;;;;;;6277295;22;20004;-84
2022/08/28 13:19:31;;;;;;;2.97;2.67;;;35.70;51.20;;;;;;6249536;22;20026;-84
2022/08/28 13:22:02;;;;;;;3.80;2.60;;;35.60;51.10;;;;;;6277396;22;20334;-84
2022/08/28 13:24:37;;;;;;;3.80;2.22;;;35.40;51.20;;;;;;6277330;22;20331;-84
2022/08/28 13:27:03;;;;;;;4.65;2.80;;;35.20;51.80;;;;;;6276987;22;20004;-84